Time;durP1;ratioP1;P1;durP2;ratioP2;P2;SDS_P1;SDS_P2;PMS_P1;PMS_P2;Temp;Humidity;BMP_temperature;BMP_pressure;BME280_temperature;BME280_humidity;BME280_pressure;Samples;Min_cycle;Max_cycle;Signal;HPM_P1;HPM_P2
2021/10/22 00:00:36;;;;;;;1.02;0.50;;;13.70;68.40;;;;;;2530901;53;22117;-73
2021/10/22 00:03:03;;;;;;;2.53;0.62;;;13.70;68.50;;;;;;2398342;52;21013;-73
2021/10/22 00:05:33;;;;;;;1.65;0.70;;;13.70;68.60;;;;;;2537507;52;21972;-72
2021/10/22 00:08:00;;;;;;;1.50;0.47;;;13.70;68.70;;;;;;2356156;53;20926;-74
2021/10/22 00:10:27;;;;;;;2.78;0.73;;;13.60;68.60;;;;;;2389056;53;21501;-73
2021/10/22 00:12:53;;;;;;;1.90;0.60;;;13.60;68.70;;;;;;2348915;54;21535;-73
2021/10/22 00:15:23;;;;;;;1.42;0.75;;;13.60;68.80;;;;;;2463741;52;21008;-71
2021/10/22 00:17:49;;;;;;;1.77;0.60;;;13.60;68.80;;;;;;2343824;53;21344;-72
2021/10/22 00:20:16;;;;;;;2.17;0.57;;;13.60;68.90;;;;;;2480602;52;21434;-72
2021/10/22 00:22:45;;;;;;;2.12;0.55;;;13.60;69.00;;;;;;2368338;53;20945;-72
2021/10/22 00:25:13;;;;;;;1.35;0.62;;;13.60;69.10;;;;;;2367982;53;20946;-71
2021/10/22 00:27:40;;;;;;;1.80;0.60;;;13.60;69.10;;;;;;2369633;53;20950;-71
2021/10/22 00:30:06;;;;;;;2.42;0.75;;;13.60;69.10;;;;;;2621641;52;21989;-73
2021/10/22 00:32:33;;;;;;;1.83;0.68;;;13.60;69.20;;;;;;2424924;52;21753;-71
2021/10/22 00:34:59;;;;;;;1.80;0.70;;;13.60;69.20;;;;;;2615564;52;20955;-73
2021/10/22 00:37:27;;;;;;;1.77;0.55;;;13.60;69.20;;;;;;2622463;52;20941;-71
2021/10/22 00:39:53;;;;;;;2.67;0.68;;;13.60;69.20;;;;;;2474537;52;20937;-72
2021/10/22 00:42:21;;;;;;;1.75;0.57;;;13.60;69.20;;;;;;2368618;53;21009;-73
2021/10/22 00:44:48;;;;;;;1.58;0.60;;;13.60;69.10;;;;;;2365349;53;21145;-73
2021/10/22 00:47:15;;;;;;;2.78;0.70;;;13.50;68.90;;;;;;2350499;54;21499;-72
2021/10/22 00:49:41;;;;;;;2.40;0.77;;;13.60;69.10;;;;;;2413048;54;21880;-71
2021/10/22 00:52:07;;;;;;;2.58;0.80;;;13.50;69.00;;;;;;2359333;53;21554;-72
2021/10/22 00:54:34;;;;;;;1.98;0.60;;;13.50;69.20;;;;;;2491750;53;21430;-71
2021/10/22 00:57:00;;;;;;;1.45;0.60;;;13.50;69.30;;;;;;2369482;53;22052;-71
2021/10/22 00:59:26;;;;;;;1.55;0.62;;;13.50;69.40;;;;;;2442591;53;20950;-72
2021/10/22 01:01:53;;;;;;;1.90;0.70;;;13.50;69.50;;;;;;2362098;53;21106;-73
2021/10/22 01:04:20;;;;;;;1.77;0.73;;;13.40;69.40;;;;;;2350000;53;21007;-72
2021/10/22 01:06:47;;;;;;;1.42;0.60;;;13.40;69.50;;;;;;2368498;53;20930;-72
2021/10/22 01:09:13;;;;;;;2.17;0.60;;;13.40;69.50;;;;;;2370013;53;20941;-71
2021/10/22 01:11:40;;;;;;;2.28;0.80;;;13.40;69.50;;;;;;2383883;52;21824;-71
2021/10/22 01:14:09;;;;;;;2.05;0.70;;;13.40;69.60;;;;;;2351356;53;20976;-73
2021/10/22 01:16:37;;;;;;;2.17;0.70;;;13.40;69.70;;;;;;2338940;54;20986;-71
2021/10/22 01:19:04;;;;;;;1.62;0.60;;;13.40;69.80;;;;;;2470497;53;21574;-71
2021/10/22 01:21:31;;;;;;;1.48;0.62;;;13.40;69.80;;;;;;2369214;53;20926;-72
2021/10/22 01:23:57;;;;;;;2.78;0.80;;;13.40;69.80;;;;;;2367795;53;21463;-71
2021/10/22 01:26:24;;;;;;;1.37;0.70;;;13.40;69.80;;;;;;2369124;53;20976;-72
2021/10/22 01:28:50;;;;;;;2.28;0.88;;;13.40;69.80;;;;;;2401719;53;21442;-72
2021/10/22 01:31:20;;;;;;;2.33;0.80;;;13.40;69.80;;;;;;2348390;53;20942;-71
2021/10/22 01:33:49;;;;;;;2.47;0.98;;;13.40;69.80;;;;;;2371690;53;20946;-71
2021/10/22 01:36:15;;;;;;;2.65;0.90;;;13.40;69.80;;;;;;2366516;53;20958;-72
2021/10/22 01:38:41;;;;;;;2.10;0.70;;;13.40;69.80;;;;;;2375655;52;21431;-74
2021/10/22 01:41:08;;;;;;;2.50;0.90;;;13.40;69.80;;;;;;2470119;52;21061;-71
2021/10/22 01:43:35;;;;;;;3.22;1.08;;;13.40;69.80;;;;;;2369824;53;21490;-70
2021/10/22 01:46:01;;;;;;;2.65;0.85;;;13.40;69.80;;;;;;2393156;52;20967;-72
2021/10/22 01:48:27;;;;;;;2.83;1.10;;;13.30;69.70;;;;;;2362291;53;21437;-71
2021/10/22 01:50:54;;;;;;;2.22;0.90;;;13.30;69.80;;;;;;2337476;54;21392;-72
2021/10/22 01:53:22;;;;;;;3.53;1.00;;;13.30;69.80;;;;;;2346869;53;21351;-71
2021/10/22 01:55:49;;;;;;;2.30;0.90;;;13.30;69.80;;;;;;2331770;54;20971;-73
2021/10/22 01:58:16;;;;;;;2.08;1.10;;;13.30;69.80;;;;;;2364850;53;21542;-73
2021/10/22 02:00:42;;;;;;;2.75;1.37;;;13.30;69.80;;;;;;2389315;52;21027;-72
2021/10/22 02:03:09;;;;;;;3.53;1.30;;;13.30;69.80;;;;;;2362136;53;21060;-73
2021/10/22 02:05:35;;;;;;;2.37;1.10;;;13.30;69.80;;;;;;2338952;54;20928;-72
2021/10/22 02:08:01;;;;;;;4.28;1.35;;;13.30;69.80;;;;;;2331801;54;20995;-71
2021/10/22 02:10:28;;;;;;;3.20;1.27;;;13.20;69.70;;;;;;2362050;53;20962;-72
2021/10/22 02:12:54;;;;;;;3.58;0.98;;;13.20;69.70;;;;;;2370916;53;20918;-73
2021/10/22 02:15:20;;;;;;;2.53;1.20;;;13.20;69.70;;;;;;2346798;53;20982;-74
2021/10/22 02:17:47;;;;;;;3.95;1.25;;;13.20;69.60;;;;;;2348408;53;20943;-71
2021/10/22 02:20:14;;;;;;;2.80;1.00;;;13.20;69.40;;;;;;2368599;53;20997;-74
2021/10/22 02:22:41;;;;;;;4.82;1.48;;;13.20;69.20;;;;;;2513329;52;20943;-73
2021/10/22 02:25:08;;;;;;;4.78;1.62;;;13.10;69.10;;;;;;2347455;53;21061;-74
2021/10/22 02:27:35;;;;;;;3.08;1.40;;;13.10;69.00;;;;;;2347360;53;21849;-72
2021/10/22 02:30:15;;;;;;;3.37;1.60;;;13.10;68.90;;;;;;2355304;53;21027;-71
2021/10/22 02:32:42;;;;;;;3.28;1.30;;;13.00;68.70;;;;;;2352284;53;20990;-70
2021/10/22 02:35:08;;;;;;;3.20;1.52;;;13.00;68.60;;;;;;2349764;53;20958;-73
2021/10/22 02:37:35;;;;;;;3.67;1.30;;;12.90;68.50;;;;;;2369873;53;20914;-72
2021/10/22 02:40:01;;;;;;;4.50;1.60;;;12.80;68.50;;;;;;2369741;53;20934;-72
2021/10/22 02:42:27;;;;;;;4.05;1.70;;;12.80;68.50;;;;;;2361853;53;21137;-73
2021/10/22 02:44:53;;;;;;;3.40;1.45;;;12.80;69.00;;;;;;2343474;53;20945;-73
2021/10/22 02:47:21;;;;;;;3.12;1.20;;;12.70;68.70;;;;;;2350018;53;20947;-73
2021/10/22 02:49:47;;;;;;;4.10;1.50;;;12.70;68.80;;;;;;2369541;53;20946;-71
2021/10/22 02:52:15;;;;;;;3.65;1.55;;;12.70;68.90;;;;;;2369520;53;20985;-74
2021/10/22 02:54:43;;;;;;;3.60;1.60;;;12.60;68.80;;;;;;2370293;53;20989;-74
2021/10/22 02:57:09;;;;;;;3.72;1.52;;;12.60;68.80;;;;;;2369190;53;21026;-71
2021/10/22 02:59:36;;;;;;;3.33;1.60;;;12.50;68.80;;;;;;2369760;53;21229;-71
2021/10/22 03:02:02;;;;;;;3.55;1.60;;;12.50;68.80;;;;;;2365100;53;21051;-74
2021/10/22 03:04:29;;;;;;;3.42;1.62;;;12.50;68.80;;;;;;2355439;53;20930;-73
2021/10/22 03:06:55;;;;;;;4.28;1.60;;;12.40;68.70;;;;;;2353587;53;21082;-73
2021/10/22 03:09:21;;;;;;;4.15;1.62;;;12.40;68.80;;;;;;2476337;52;20971;-75
2021/10/22 03:11:48;;;;;;;5.43;1.87;;;12.40;68.90;;;;;;2353468;53;21005;-74
2021/10/22 03:14:14;;;;;;;3.87;1.80;;;12.40;68.90;;;;;;2369506;53;21027;-73
2021/10/22 03:16:42;;;;;;;3.22;1.52;;;12.30;68.90;;;;;;2369622;53;20913;-72
2021/10/22 03:19:11;;;;;;;3.28;1.80;;;12.30;69.00;;;;;;2357634;52;20914;-74
2021/10/22 03:21:40;;;;;;;3.60;1.62;;;12.30;69.10;;;;;;2579383;52;21989;-73
2021/10/22 03:24:06;;;;;;;3.90;1.60;;;12.30;69.10;;;;;;2366998;53;20918;-72
2021/10/22 03:26:32;;;;;;;3.40;1.40;;;12.20;69.10;;;;;;2349179;53;20948;-74
2021/10/22 03:28:59;;;;;;;4.93;1.55;;;12.20;69.20;;;;;;2369503;53;20930;-73
2021/10/22 03:31:27;;;;;;;3.62;1.52;;;12.20;69.30;;;;;;2399898;52;21041;-70
2021/10/22 03:33:54;;;;;;;4.25;1.95;;;12.20;70.00;;;;;;2403998;52;20998;-74
2021/10/22 03:36:21;;;;;;;4.47;1.80;;;12.20;69.40;;;;;;2369330;53;21620;-73
2021/10/22 03:38:48;;;;;;;3.83;1.42;;;12.20;69.40;;;;;;2355976;53;21074;-73
2021/10/22 03:41:14;;;;;;;4.93;1.67;;;12.20;69.40;;;;;;2422186;52;20942;-71
2021/10/22 03:43:40;;;;;;;3.58;1.60;;;12.10;69.20;;;;;;2351887;53;21056;-73
2021/10/22 03:46:07;;;;;;;4.40;2.03;;;12.10;69.20;;;;;;2337757;54;21745;-74
2021/10/22 03:48:33;;;;;;;3.42;2.10;;;12.10;69.20;;;;;;2336460;54;20976;-73
2021/10/22 03:51:01;;;;;;;5.62;2.00;;;12.00;69.10;;;;;;2362649;53;20931;-72
2021/10/22 03:53:28;;;;;;;3.75;1.92;;;12.00;69.10;;;;;;2362407;53;22064;-72
2021/10/22 03:55:54;;;;;;;3.15;1.55;;;12.00;69.10;;;;;;2508048;52;21925;-71
2021/10/22 03:58:22;;;;;;;3.53;1.45;;;12.00;69.10;;;;;;2383173;53;21877;-73
2021/10/22 04:00:48;;;;;;;2.78;1.37;;;12.00;69.00;;;;;;2389262;52;20999;-75
2021/10/22 04:03:15;;;;;;;3.33;1.80;;;11.90;68.90;;;;;;2335848;54;20959;-72
2021/10/22 04:05:45;;;;;;;4.68;1.58;;;11.90;68.90;;;;;;2367456;53;20997;-74
2021/10/22 04:08:11;;;;;;;2.72;1.37;;;11.80;68.70;;;;;;2349617;53;21003;-71
2021/10/22 04:10:42;;;;;;;6.62;1.70;;;11.80;68.70;;;;;;2369463;53;20950;-71
2021/10/22 04:13:12;;;;;;;3.53;1.60;;;11.80;68.60;;;;;;2334617;53;21845;-71
2021/10/22 04:15:44;;;;;;;3.75;2.00;;;11.70;68.40;;;;;;2421957;52;21047;-74
2021/10/22 04:18:11;;;;;;;5.22;2.05;;;11.70;68.40;;;;;;2347574;53;21002;-72
2021/10/22 04:20:37;;;;;;;3.10;1.50;;;11.70;68.50;;;;;;2369210;53;21756;-72
2021/10/22 04:23:07;;;;;;;4.68;1.80;;;11.60;68.40;;;;;;2400675;52;21861;-74
2021/10/22 04:25:34;;;;;;;4.57;1.70;;;11.60;68.40;;;;;;2413595;52;21001;-74
2021/10/22 04:28:01;;;;;;;4.70;1.55;;;11.50;68.30;;;;;;2369653;53;20946;-71
2021/10/22 04:30:28;;;;;;;2.95;1.30;;;11.40;68.20;;;;;;2368662;53;20962;-73
2021/10/22 04:32:55;;;;;;;4.20;1.52;;;11.40;68.30;;;;;;2324764;55;20964;-74
2021/10/22 04:35:21;;;;;;;4.47;1.42;;;11.30;68.20;;;;;;2341162;53;21005;-73
2021/10/22 04:38:02;;;;;;;4.93;1.60;;;11.30;68.20;;;;;;2355243;53;20989;-73
2021/10/22 04:40:33;;;;;;;3.03;1.20;;;11.20;68.20;;;;;;2367956;53;20978;-71
2021/10/22 04:43:03;;;;;;;3.80;1.20;;;11.20;68.20;;;;;;2369772;53;21734;-73
2021/10/22 04:45:30;;;;;;;3.58;1.30;;;11.10;68.00;;;;;;2369868;52;21013;-74
2021/10/22 04:47:57;;;;;;;3.25;1.23;;;11.10;68.00;;;;;;2304599;55;20933;-72
2021/10/22 04:50:23;;;;;;;4.57;1.27;;;11.00;67.90;;;;;;2341268;53;20943;-74
2021/10/22 04:52:53;;;;;;;6.95;1.62;;;11.00;68.10;;;;;;2341088;54;21512;-72
2021/10/22 04:55:23;;;;;;;4.22;1.40;;;10.90;68.00;;;;;;2455539;53;20942;-71
2021/10/22 04:58:02;;;;;;;4.95;1.50;;;10.90;68.00;;;;;;2340196;53;21532;-74
2021/10/22 05:00:30;;;;;;;4.80;1.40;;;10.80;67.70;;;;;;2317842;54;20977;-74
2021/10/22 05:02:57;;;;;;;2.53;1.33;;;10.70;68.00;;;;;;2331621;53;21041;-74
2021/10/22 05:05:23;;;;;;;3.87;1.50;;;10.70;67.90;;;;;;2470658;52;20957;-73
2021/10/22 05:07:51;;;;;;;3.65;1.30;;;10.60;67.70;;;;;;2345368;54;20968;-73
2021/10/22 05:10:17;;;;;;;4.57;1.37;;;10.60;67.90;;;;;;2370585;53;20945;-71
2021/10/22 05:12:44;;;;;;;4.32;2.03;;;10.50;67.80;;;;;;2368849;53;20918;-72
2021/10/22 05:15:12;;;;;;;3.67;2.00;;;10.50;67.80;;;;;;2452527;52;21526;-72
2021/10/22 05:17:38;;;;;;;4.40;1.80;;;10.40;67.80;;;;;;2369296;53;20938;-72
2021/10/22 05:20:06;;;;;;;7.45;2.65;;;10.40;67.90;;;;;;2406887;52;21008;-72
2021/10/22 05:22:35;;;;;;;5.22;2.25;;;10.30;67.90;;;;;;2349411;54;21046;-72
2021/10/22 05:25:01;;;;;;;3.87;1.98;;;10.30;67.90;;;;;;2372775;52;21049;-71
2021/10/22 05:27:27;;;;;;;4.05;1.85;;;10.20;67.90;;;;;;2369804;53;21367;-72
2021/10/22 05:29:53;;;;;;;5.40;2.28;;;10.20;67.90;;;;;;2369340;53;21556;-73
2021/10/22 05:32:20;;;;;;;5.03;2.10;;;10.10;67.80;;;;;;2369530;53;20926;-71
2021/10/22 05:34:46;;;;;;;4.50;1.70;;;10.10;68.00;;;;;;2353960;53;20967;-71
2021/10/22 05:37:35;;;;;;;3.50;1.73;;;10.00;67.80;;;;;;2355985;54;20951;-72
2021/10/22 05:40:01;;;;;;;3.78;1.80;;;10.00;67.40;;;;;;2413795;53;20930;-71
2021/10/22 05:42:28;;;;;;;6.30;1.75;;;9.90;68.60;;;;;;2358059;53;20968;-72
2021/10/22 05:44:54;;;;;;;4.37;1.70;;;9.90;68.60;;;;;;2361617;53;20930;-72
2021/10/22 05:47:21;;;;;;;5.60;1.80;;;9.80;68.50;;;;;;2349590;53;21290;-75
2021/10/22 05:49:48;;;;;;;4.15;1.50;;;9.80;68.60;;;;;;2339391;54;21004;-70
2021/10/22 05:52:16;;;;;;;2.90;1.25;;;9.70;68.70;;;;;;2443507;53;22022;-73
2021/10/22 05:54:43;;;;;;;3.90;1.65;;;9.60;68.70;;;;;;2442318;52;20959;-71
2021/10/22 05:57:11;;;;;;;4.40;1.85;;;9.60;68.90;;;;;;2364221;53;21358;-73
2021/10/22 05:59:37;;;;;;;3.33;1.48;;;9.50;69.70;;;;;;2621802;52;21470;-70
2021/10/22 06:02:06;;;;;;;5.68;1.37;;;9.50;69.10;;;;;;2332674;53;20958;-70
2021/10/22 06:04:33;;;;;;;4.00;1.75;;;9.50;69.10;;;;;;2368916;53;21888;-74
2021/10/22 06:07:04;;;;;;;4.72;1.60;;;9.40;69.10;;;;;;2356767;53;20986;-74
2021/10/22 06:09:31;;;;;;;4.28;1.58;;;9.40;69.20;;;;;;2362040;53;21695;-72
2021/10/22 06:12:00;;;;;;;4.75;1.40;;;9.40;69.20;;;;;;2368823;53;21116;-71
2021/10/22 06:14:28;;;;;;;3.40;1.40;;;9.30;69.00;;;;;;2368990;53;20969;-73
2021/10/22 06:16:57;;;;;;;6.47;2.50;;;9.30;69.10;;;;;;2349533;54;20975;-72
2021/10/22 06:19:29;;;;;;;5.15;2.28;;;9.30;69.20;;;;;;2462024;52;20991;-73
2021/10/22 06:22:09;;;;;;;5.95;1.95;;;9.20;69.20;;;;;;2369541;53;21584;-70
2021/10/22 06:24:36;;;;;;;5.53;2.00;;;9.20;69.30;;;;;;2355901;53;20979;-73
2021/10/22 06:27:03;;;;;;;4.97;2.00;;;9.20;69.40;;;;;;2345819;54;21513;-70
2021/10/22 06:29:31;;;;;;;3.40;1.80;;;9.20;69.60;;;;;;2380644;52;21809;-72
2021/10/22 06:32:10;;;;;;;4.25;2.10;;;9.10;69.40;;;;;;2352289;53;21018;-72
2021/10/22 06:34:41;;;;;;;4.07;1.58;;;9.10;69.30;;;;;;2333563;54;20956;-73
2021/10/22 06:37:07;;;;;;;3.10;1.62;;;9.10;69.60;;;;;;2351087;53;20968;-71
2021/10/22 06:39:34;;;;;;;3.25;1.70;;;9.00;69.50;;;;;;2369629;53;21038;-71
2021/10/22 06:42:04;;;;;;;3.70;1.83;;;9.00;69.50;;;;;;2355761;53;21005;-74
2021/10/22 06:44:31;;;;;;;6.68;2.00;;;9.00;69.40;;;;;;2364500;53;21010;-72
2021/10/22 06:46:57;;;;;;;5.65;1.98;;;9.00;69.60;;;;;;2334568;54;20906;-73
2021/10/22 06:49:24;;;;;;;4.40;1.70;;;9.00;69.80;;;;;;2369539;53;21483;-70
2021/10/22 06:51:50;;;;;;;3.87;1.75;;;8.90;69.80;;;;;;2369315;53;20958;-71
2021/10/22 06:54:17;;;;;;;4.90;2.08;;;8.90;70.00;;;;;;2402682;52;20945;-69
2021/10/22 06:56:43;;;;;;;5.37;1.67;;;8.90;70.10;;;;;;2423423;52;21848;-72
2021/10/22 06:59:10;;;;;;;7.82;2.03;;;8.90;70.30;;;;;;2369633;53;21058;-72
2021/10/22 07:01:36;;;;;;;3.70;1.85;;;8.90;70.40;;;;;;2369571;53;21001;-70
2021/10/22 07:04:03;;;;;;;5.57;2.10;;;8.90;70.50;;;;;;2494781;52;20953;-72
2021/10/22 07:09:14;;;;;;;4.68;1.75;;;9.00;71.00;;;;;;2459404;52;21011;-70
2021/10/22 07:11:41;;;;;;;3.92;1.70;;;9.00;71.10;;;;;;2350507;53;20978;-72
2021/10/22 07:14:08;;;;;;;4.20;1.70;;;9.00;71.30;;;;;;2352417;53;20980;-71
2021/10/22 07:16:37;;;;;;;4.40;1.40;;;9.00;71.50;;;;;;2397251;53;20997;-70
2021/10/22 07:19:04;;;;;;;5.15;2.00;;;9.10;71.70;;;;;;2369191;52;21027;-74
2021/10/22 07:21:32;;;;;;;4.00;1.48;;;9.10;71.90;;;;;;2335681;53;20997;-71
2021/10/22 07:24:02;;;;;;;7.03;1.77;;;9.10;72.10;;;;;;2365598;53;20949;-72
2021/10/22 07:26:28;;;;;;;6.82;1.75;;;9.20;72.20;;;;;;2371302;53;21339;-74
2021/10/22 07:28:54;;;;;;;3.92;1.23;;;9.30;72.40;;;;;;2382397;53;21003;-73
2021/10/22 07:31:21;;;;;;;4.43;1.50;;;9.30;72.50;;;;;;2338869;54;21011;-72
2021/10/22 07:33:48;;;;;;;4.45;1.12;;;9.40;72.60;;;;;;2484532;52;20961;-72
2021/10/22 07:36:15;;;;;;;3.17;1.02;;;9.50;72.80;;;;;;2350346;53;21426;-74
2021/10/22 07:38:43;;;;;;;4.57;1.08;;;9.50;72.90;;;;;;2378130;53;20994;-73
2021/10/22 07:41:10;;;;;;;5.12;1.10;;;9.60;73.10;;;;;;2351190;53;20947;-71
2021/10/22 07:43:37;;;;;;;3.90;1.60;;;9.60;73.10;;;;;;2366771;53;21530;-73
2021/10/22 07:46:03;;;;;;;4.15;1.58;;;9.70;73.20;;;;;;2427533;52;21124;-70
2021/10/22 07:48:33;;;;;;;4.22;1.25;;;9.80;73.30;;;;;;2448254;53;20951;-73
2021/10/22 07:51:01;;;;;;;4.50;1.17;;;9.80;73.40;;;;;;2359264;53;20950;-72
2021/10/22 07:53:27;;;;;;;2.95;0.95;;;9.90;73.60;;;;;;2390480;52;20962;-72
2021/10/22 07:55:55;;;;;;;3.58;0.95;;;9.90;73.50;;;;;;2356236;53;20990;-73
2021/10/22 07:58:21;;;;;;;4.30;1.20;;;10.00;72.60;;;;;;2413281;52;21390;-72
2021/10/22 08:00:48;;;;;;;3.78;0.88;;;10.10;72.60;;;;;;2369351;53;20946;-71
2021/10/22 08:03:14;;;;;;;6.22;1.20;;;10.20;72.70;;;;;;2369307;53;22581;-73
2021/10/22 08:05:44;;;;;;;4.55;1.27;;;10.30;72.80;;;;;;2369660;53;21021;-74
2021/10/22 08:08:11;;;;;;;3.65;0.98;;;10.30;72.80;;;;;;2437193;52;21541;-72
2021/10/22 08:10:40;;;;;;;4.45;1.08;;;10.40;72.90;;;;;;2369584;53;20946;-71
2021/10/22 08:13:10;;;;;;;5.22;1.05;;;10.50;73.10;;;;;;2381677;52;21798;-71
2021/10/22 08:15:40;;;;;;;7.45;1.30;;;10.60;73.20;;;;;;2360822;53;20962;-71
2021/10/22 08:18:08;;;;;;;4.07;1.05;;;10.70;73.40;;;;;;2360050;53;21568;-73
2021/10/22 08:20:36;;;;;;;5.90;1.10;;;10.80;73.50;;;;;;2359937;53;20954;-72
2021/10/22 08:23:03;;;;;;;4.65;1.25;;;10.90;73.60;;;;;;2399857;52;21008;-72
2021/10/22 08:25:30;;;;;;;3.15;0.95;;;11.00;73.60;;;;;;2369215;53;21692;-72
2021/10/22 08:27:58;;;;;;;4.70;1.10;;;11.10;73.60;;;;;;2622370;52;20910;-74
2021/10/22 08:30:27;;;;;;;5.70;1.40;;;11.10;73.50;;;;;;2369910;53;20930;-73
2021/10/22 08:32:55;;;;;;;4.78;1.12;;;11.20;73.30;;;;;;2468923;52;20950;-73
2021/10/22 08:35:28;;;;;;;3.83;0.90;;;11.30;73.30;;;;;;2372270;52;20953;-71
2021/10/22 08:37:55;;;;;;;4.22;1.12;;;11.40;73.20;;;;;;2376708;53;21017;-70
2021/10/22 08:40:22;;;;;;;5.57;1.25;;;11.50;73.30;;;;;;2369667;53;21677;-72
2021/10/22 08:42:49;;;;;;;5.55;1.40;;;11.60;73.20;;;;;;2374948;52;20910;-74
2021/10/22 08:45:15;;;;;;;5.35;1.30;;;11.70;73.20;;;;;;2364207;52;20963;-73
2021/10/22 08:47:43;;;;;;;5.03;1.50;;;11.70;73.10;;;;;;2369320;53;21105;-75
2021/10/22 08:50:16;;;;;;;7.00;1.83;;;11.80;73.20;;;;;;2364101;53;21903;-74
2021/10/22 08:52:44;;;;;;;4.10;1.17;;;11.90;73.10;;;;;;2335546;54;20935;-73
2021/10/22 08:55:11;;;;;;;4.93;1.37;;;12.00;73.00;;;;;;2365656;53;21043;-73
2021/10/22 08:57:41;;;;;;;7.40;2.00;;;12.10;73.00;;;;;;2350403;52;1303818;-76
2021/10/22 09:00:09;;;;;;;6.45;1.90;;;12.10;73.20;;;;;;2369283;53;21057;-74
2021/10/22 09:02:36;;;;;;;5.07;1.52;;;12.20;72.70;;;;;;2389946;52;20975;-70
2021/10/22 09:05:23;;;;;;;4.40;1.45;;;12.30;72.60;;;;;;2353054;53;21399;-74
2021/10/22 09:07:51;;;;;;;4.80;1.73;;;12.40;72.20;;;;;;2360158;52;21047;-72
2021/10/22 09:10:22;;;;;;;5.62;1.20;;;12.40;72.70;;;;;;2367946;53;20958;-73
2021/10/22 09:13:04;;;;;;;5.68;1.65;;;12.60;72.90;;;;;;2379493;52;20942;-74
2021/10/22 09:15:36;;;;;;;5.30;1.30;;;12.60;72.90;;;;;;2352667;53;21026;-75
2021/10/22 09:18:07;;;;;;;8.32;1.50;;;12.70;73.00;;;;;;2430793;52;20945;-73
2021/10/22 09:20:39;;;;;;;4.70;1.30;;;12.80;73.20;;;;;;2369680;53;21834;-73
2021/10/22 09:23:06;;;;;;;4.22;1.42;;;12.90;73.20;;;;;;2369045;53;21001;-73
2021/10/22 09:25:32;;;;;;;7.28;1.30;;;13.00;73.10;;;;;;2369620;53;21384;-75
2021/10/22 09:28:00;;;;;;;5.72;1.33;;;13.10;73.00;;;;;;2400663;52;20938;-73
2021/10/22 09:30:36;;;;;;;4.25;1.05;;;13.20;72.90;;;;;;2368848;53;21451;-73
2021/10/22 09:33:18;;;;;;;4.97;1.15;;;13.30;72.50;;;;;;2415282;52;21706;-72
2021/10/22 09:35:57;;;;;;;5.03;1.50;;;13.40;72.00;;;;;;2366014;53;20974;-75
2021/10/22 09:38:28;;;;;;;5.18;1.30;;;13.50;72.60;;;;;;2481239;52;20974;-73
2021/10/22 09:41:04;;;;;;;3.67;1.20;;;13.60;72.80;;;;;;2457158;52;20967;-72
2021/10/22 09:43:35;;;;;;;4.57;1.33;;;13.70;72.80;;;;;;2331270;54;21588;-74
2021/10/22 09:46:10;;;;;;;7.32;1.98;;;13.80;73.40;;;;;;2365724;54;20949;-75
2021/10/22 09:48:37;;;;;;;9.30;1.50;;;13.90;73.10;;;;;;2502696;52;21130;-73
2021/10/22 09:51:29;;;;;;;4.55;1.40;;;14.00;73.70;;;;;;2421826;52;20991;-74
2021/10/22 09:54:01;;;;;;;7.82;1.90;;;14.20;72.70;;;;;;2456398;52;21501;-73
2021/10/22 09:56:28;;;;;;;4.97;1.30;;;14.40;74.00;;;;;;2335971;53;21111;-72
2021/10/22 09:59:23;;;;;;;7.32;2.00;;;14.50;74.00;;;;;;2474192;52;21715;-74
2021/10/22 10:01:51;;;;;;;5.85;1.45;;;14.70;73.10;;;;;;2432661;53;21464;-72
2021/10/22 10:04:18;;;;;;;6.82;2.62;;;14.80;72.90;;;;;;2356474;53;20942;-73
2021/10/22 10:07:04;;;;;;;7.47;1.55;;;14.90;72.80;;;;;;2424160;53;20946;-71
2021/10/22 10:09:31;;;;;;;4.55;1.30;;;15.00;72.50;;;;;;2381345;52;21741;-73
2021/10/22 10:12:00;;;;;;;5.60;1.55;;;15.10;72.30;;;;;;2348525;53;21021;-73
2021/10/22 10:14:27;;;;;;;5.43;2.03;;;15.10;71.60;;;;;;2378847;52;21476;-73
2021/10/22 10:16:55;;;;;;;8.98;1.90;;;15.10;71.40;;;;;;2358883;53;20963;-76
2021/10/22 10:20:23;;;;;;;5.32;1.80;;;15.20;71.20;;;;;;2362330;53;21900;-73
2021/10/22 10:22:50;;;;;;;5.40;1.58;;;15.20;70.20;;;;;;2369083;53;21101;-72
2021/10/22 10:25:20;;;;;;;5.45;1.20;;;15.20;69.70;;;;;;2393668;52;20935;-73
2021/10/22 10:27:52;;;;;;;5.72;1.85;;;15.20;69.60;;;;;;2456061;52;21455;-74
2021/10/22 10:30:39;;;;;;;4.37;1.35;;;15.30;69.40;;;;;;2379949;53;20911;-76
2021/10/22 10:33:07;;;;;;;8.65;1.30;;;15.30;68.80;;;;;;2369554;53;20974;-71
2021/10/22 10:35:38;;;;;;;7.78;1.95;;;15.30;69.80;;;;;;2379184;52;20945;-75
2021/10/22 10:38:13;;;;;;;7.15;1.50;;;15.30;69.60;;;;;;2369215;53;21030;-73
2021/10/22 10:40:40;;;;;;;4.43;1.12;;;15.30;69.90;;;;;;2350841;53;21051;-73
2021/10/22 10:43:19;;;;;;;5.45;1.30;;;15.40;69.70;;;;;;2361394;53;20895;-74
2021/10/22 10:45:46;;;;;;;8.65;1.45;;;15.40;68.30;;;;;;2360770;53;21002;-73
2021/10/22 10:48:21;;;;;;;6.20;1.10;;;15.40;69.20;;;;;;2362475;53;20976;-73
2021/10/22 10:50:56;;;;;;;5.10;1.55;;;15.40;68.90;;;;;;2344722;53;21022;-72
2021/10/22 10:54:00;;;;;;;9.57;2.10;;;15.40;68.40;;;;;;2372886;53;20930;-72
2021/10/22 10:56:38;;;;;;;8.13;1.37;;;15.40;67.10;;;;;;2572803;53;20940;-75
2021/10/22 10:59:04;;;;;;;6.05;1.58;;;15.50;68.50;;;;;;2416407;53;20967;-72
2021/10/22 11:01:36;;;;;;;8.18;1.83;;;15.50;68.70;;;;;;2362524;53;21356;-75
2021/10/22 11:04:02;;;;;;;7.13;1.20;;;15.50;68.60;;;;;;2624397;52;20980;-73
2021/10/22 11:06:47;;;;;;;6.15;1.10;;;15.50;68.10;;;;;;2351159;53;21029;-75
2021/10/22 11:09:26;;;;;;;7.95;1.60;;;15.50;67.00;;;;;;2385008;54;21021;-74
2021/10/22 11:12:11;;;;;;;5.30;1.25;;;15.50;67.90;;;;;;2568619;52;20966;-74
2021/10/22 11:14:44;;;;;;;6.62;1.55;;;15.50;66.60;;;;;;2359747;53;20986;-73
2021/10/22 11:17:13;;;;;;;7.60;1.75;;;15.50;67.30;;;;;;2372124;53;20970;-73
2021/10/22 11:19:40;;;;;;;7.37;1.20;;;15.50;67.80;;;;;;2382429;52;20984;-72
2021/10/22 11:22:23;;;;;;;9.52;1.98;;;15.60;67.50;;;;;;2387765;52;21061;-75
2021/10/22 11:24:49;;;;;;;5.40;1.20;;;15.60;67.10;;;;;;2338796;54;20971;-74
2021/10/22 11:27:17;;;;;;;5.22;1.20;;;15.60;67.40;;;;;;2365023;53;20938;-76
2021/10/22 11:29:47;;;;;;;5.93;2.08;;;15.60;67.00;;;;;;2370371;53;21021;-73
2021/10/22 11:32:21;;;;;;;8.10;1.35;;;15.60;65.90;;;;;;2359023;52;21456;-75
2021/10/22 11:34:58;;;;;;;8.18;1.60;;;15.60;65.90;;;;;;2409930;52;20951;-74
2021/10/22 11:37:27;;;;;;;3.80;0.95;;;15.60;65.60;;;;;;2435822;52;20996;-73
2021/10/22 11:39:55;;;;;;;6.53;1.15;;;15.60;66.50;;;;;;2339206;54;20968;-74
2021/10/22 11:42:39;;;;;;;7.30;1.20;;;15.60;66.60;;;;;;2358018;53;20958;-74
2021/10/22 11:45:10;;;;;;;5.72;1.27;;;15.60;65.90;;;;;;2547295;52;20942;-74
2021/10/22 11:47:42;;;;;;;6.90;1.33;;;15.60;66.30;;;;;;2498754;52;20966;-76
2021/10/22 11:50:42;;;;;;;5.43;1.25;;;15.60;66.00;;;;;;2352820;53;21948;-73
2021/10/22 11:53:13;;;;;;;5.00;0.95;;;15.60;64.50;;;;;;2376872;53;20946;-73
2021/10/22 11:56:12;;;;;;;5.22;1.12;;;15.60;66.90;;;;;;2361564;53;21760;-73
2021/10/22 11:58:40;;;;;;;4.28;1.10;;;15.60;64.90;;;;;;2378861;53;20937;-73
2021/10/22 12:01:06;;;;;;;6.22;1.42;;;15.60;66.60;;;;;;2457110;53;20931;-72
2021/10/22 12:03:39;;;;;;;3.40;0.75;;;15.60;66.60;;;;;;2382060;53;21301;-73
2021/10/22 12:06:18;;;;;;;;;;;15.70;67.00;;;;;;2364659;53;21539;-72
2021/10/22 12:08:45;;;;;;;3.75;0.80;;;15.70;65.10;;;;;;2351144;53;20105;-73
2021/10/22 12:11:14;;;;;;;5.18;1.02;;;15.80;67.70;;;;;;2370496;53;21430;-73
2021/10/22 12:13:43;;;;;;;4.90;1.00;;;15.90;67.80;;;;;;2387711;52;20935;-73
2021/10/22 12:16:23;;;;;;;4.45;0.73;;;15.90;67.80;;;;;;2360508;53;21476;-72
2021/10/22 12:18:58;;;;;;;5.45;0.98;;;16.00;66.50;;;;;;2381774;53;21427;-72
2021/10/22 12:21:28;;;;;;;3.42;0.90;;;16.10;66.60;;;;;;2374039;52;21088;-73
2021/10/22 12:24:08;;;;;;;3.72;0.90;;;16.10;67.10;;;;;;2371345;53;20953;-75
2021/10/22 12:26:37;;;;;;;5.55;0.98;;;16.20;65.70;;;;;;2403832;52;20996;-75
2021/10/22 12:29:08;;;;;;;4.78;0.90;;;16.30;66.80;;;;;;2362207;53;20977;-72
2021/10/22 12:31:56;;;;;;;5.95;1.10;;;16.30;66.60;;;;;;2407264;52;20955;-72
2021/10/22 12:34:32;;;;;;;6.07;0.90;;;16.30;66.30;;;;;;2370952;53;20975;-72
2021/10/22 12:37:13;;;;;;;5.53;1.65;;;16.40;65.60;;;;;;2352686;53;20955;-72
2021/10/22 12:39:44;;;;;;;5.20;0.82;;;16.40;64.60;;;;;;2371315;53;21013;-70
2021/10/22 12:43:13;;;;;;;4.07;0.60;;;16.40;65.60;;;;;;2361483;53;20990;-71
2021/10/22 12:46:07;;;;;;;13.50;5.97;;;16.50;63.30;;;;;;2356751;53;20947;-72
2021/10/22 12:48:35;;;;;;;7.65;2.67;;;16.50;64.70;;;;;;2374619;53;20947;-71
2021/10/22 12:51:22;;;;;;;6.00;2.12;;;16.60;66.40;;;;;;2355509;53;20948;-72
2021/10/22 12:53:51;;;;;;;4.90;1.50;;;16.70;66.40;;;;;;2362609;53;20988;-72
2021/10/22 12:56:25;;;;;;;4.65;1.80;;;16.70;66.50;;;;;;2350423;53;20933;-70
2021/10/22 12:59:03;;;;;;;6.70;1.70;;;16.80;65.50;;;;;;2372880;53;20952;-70
2021/10/22 13:01:37;;;;;;;4.60;1.55;;;16.90;64.30;;;;;;2534292;52;20958;-70
2021/10/22 13:04:08;;;;;;;4.75;1.05;;;16.90;64.20;;;;;;2360783;53;21470;-73